createdAt,value
2018-05-21T00:00:33.891Z,0.00
2018-05-21T00:01:34.168Z,0.00
2018-05-21T00:02:34.241Z,0.00
2018-05-21T00:03:34.435Z,0.00
2018-05-21T00:04:34.641Z,0.00
2018-05-21T00:05:34.836Z,0.00
2018-05-21T00:06:35.081Z,0.00
2018-05-21T00:07:35.130Z,0.00
2018-05-21T00:08:35.315Z,0.00
2018-05-21T00:09:35.525Z,0.00
2018-05-21T00:10:35.717Z,0.00
2018-05-21T00:11:35.926Z,0.00
2018-05-21T00:12:36.140Z,0.00
2018-05-21T00:13:36.360Z,0.00
2018-05-21T00:14:36.541Z,0.00
2018-05-21T00:15:36.839Z,0.00
2018-05-21T00:16:36.904Z,0.00
2018-05-21T00:17:37.105Z,0.00
2018-05-21T00:18:37.318Z,0.00
2018-05-21T00:19:37.523Z,0.00
2018-05-21T00:20:37.742Z,0.00
2018-05-21T00:21:37.817Z,0.00
2018-05-21T00:22:38.086Z,0.00
2018-05-21T00:23:38.154Z,0.00
2018-05-21T00:24:38.352Z,0.00
2018-05-21T00:25:38.530Z,0.00
2018-05-21T00:26:38.738Z,0.00
2018-05-21T00:27:38.948Z,0.00
2018-05-21T00:28:39.138Z,0.00
2018-05-21T00:29:39.321Z,0.00
2018-05-21T00:30:39.665Z,0.00
2018-05-21T00:31:39.726Z,0.00
2018-05-21T00:32:39.927Z,0.00
2018-05-21T00:33:40.140Z,0.00
2018-05-21T00:34:40.324Z,0.00
2018-05-21T00:35:40.527Z,0.00
2018-05-21T00:36:40.723Z,0.00
2018-05-21T00:37:40.993Z,0.00
2018-05-21T00:38:41.061Z,0.00
2018-05-21T00:39:41.243Z,0.00
2018-05-21T00:40:41.435Z,0.00
2018-05-21T00:41:41.645Z,0.00
2018-05-21T00:42:41.833Z,0.00
2018-05-21T00:43:42.043Z,0.00
2018-05-21T00:44:42.250Z,0.00
2018-05-21T00:45:42.436Z,0.00
2018-05-21T00:46:42.637Z,0.00
2018-05-21T00:47:42.831Z,0.00
2018-05-21T00:48:43.027Z,0.00
2018-05-21T00:49:43.208Z,0.00
2018-05-21T00:50:43.388Z,0.00
2018-05-21T00:51:43.586Z,0.00
2018-05-21T00:52:43.781Z,0.00
2018-05-21T00:53:43.986Z,0.00
2018-05-21T00:54:44.173Z,0.00
2018-05-21T00:55:44.361Z,0.00
2018-05-21T00:56:44.544Z,0.00
2018-05-21T00:57:44.759Z,0.00
2018-05-21T00:58:44.943Z,0.00
2018-05-21T00:59:45.137Z,0.00
2018-05-21T01:00:45.363Z,0.00
2018-05-21T01:01:45.582Z,0.00
2018-05-21T01:02:45.789Z,0.00
2018-05-21T01:03:45.973Z,0.00
2018-05-21T01:04:46.178Z,0.00
2018-05-21T01:05:46.379Z,0.00
2018-05-21T01:06:46.573Z,0.00
2018-05-21T01:07:46.761Z,0.00
2018-05-21T01:08:46.951Z,0.00
2018-05-21T01:09:47.142Z,0.00
2018-05-21T01:10:47.351Z,0.00
2018-05-21T01:11:47.562Z,0.00
2018-05-21T01:12:47.744Z,0.00
2018-05-21T01:13:48.018Z,0.00
2018-05-21T01:14:48.158Z,0.00
2018-05-21T01:15:48.369Z,0.00
2018-05-21T01:16:48.544Z,0.00
2018-05-21T01:17:48.732Z,0.00
2018-05-21T01:18:48.934Z,0.00
2018-05-21T01:19:49.138Z,0.00
2018-05-21T01:20:49.334Z,0.00
2018-05-21T01:21:49.560Z,0.00
2018-05-21T01:22:49.618Z,0.00
2018-05-21T01:23:49.832Z,0.00
2018-05-21T01:24:50.016Z,0.00
2018-05-21T01:25:50.202Z,0.00
2018-05-21T01:26:50.394Z,0.00
2018-05-21T01:27:50.581Z,0.00
2018-05-21T01:28:50.764Z,0.00
2018-05-21T01:29:50.965Z,0.00
2018-05-21T01:30:51.155Z,0.00
2018-05-21T01:31:51.345Z,0.00
2018-05-21T01:32:51.563Z,0.00
2018-05-21T01:34:00.881Z,0.00
2018-05-21T01:34:59.930Z,0.00
2018-05-21T01:35:51.997Z,0.00
2018-05-21T01:37:00.072Z,0.00
2018-05-21T01:37:52.372Z,0.00
2018-05-21T01:39:00.193Z,0.00
2018-05-21T01:40:00.250Z,0.00
2018-05-21T01:41:00.324Z,0.00
2018-05-21T01:42:01.392Z,0.00
2018-05-21T01:42:53.314Z,0.00
2018-05-21T01:43:53.535Z,0.00
2018-05-21T01:44:53.745Z,0.00
2018-05-21T01:45:53.933Z,0.00
2018-05-21T01:46:54.125Z,0.00
2018-05-21T01:47:54.330Z,0.00
2018-05-21T01:48:54.523Z,0.00
2018-05-21T01:49:54.715Z,0.00
2018-05-21T01:50:54.901Z,0.00
2018-05-21T01:51:55.108Z,0.00
2018-05-21T01:52:55.291Z,0.00
2018-05-21T01:53:55.476Z,0.00
2018-05-21T01:54:55.684Z,0.00
2018-05-21T01:55:55.879Z,0.00
2018-05-21T01:56:56.085Z,0.00
2018-05-21T01:57:56.285Z,0.00
2018-05-21T01:58:56.469Z,0.00
2018-05-21T01:59:56.705Z,0.00
2018-05-21T02:00:56.777Z,0.00
2018-05-21T02:01:56.966Z,0.00
2018-05-21T02:02:57.165Z,0.00
2018-05-21T02:03:57.350Z,0.00
2018-05-21T02:04:57.554Z,0.00
2018-05-21T02:05:57.749Z,0.00
2018-05-21T02:06:57.942Z,0.00
2018-05-21T02:07:58.130Z,0.00
2018-05-21T02:08:58.359Z,0.00
2018-05-21T02:09:58.437Z,0.00
2018-05-21T02:10:58.633Z,0.00
2018-05-21T02:11:58.830Z,0.00
2018-05-21T02:12:59.022Z,0.00
2018-05-21T02:13:59.214Z,0.00
2018-05-21T02:14:59.412Z,0.00
2018-05-21T02:15:59.605Z,0.00
2018-05-21T02:16:59.815Z,0.00
2018-05-21T02:18:00.023Z,0.00
2018-05-21T02:19:00.206Z,0.00
2018-05-21T02:20:00.496Z,0.00
2018-05-21T02:21:00.651Z,0.00
2018-05-21T02:22:00.804Z,0.00
2018-05-21T02:23:01.011Z,0.00
2018-05-21T02:24:01.228Z,0.00
2018-05-21T02:25:01.431Z,0.00
2018-05-21T02:26:01.645Z,0.00
2018-05-21T02:27:01.899Z,0.00
2018-05-21T02:28:02.038Z,0.00
2018-05-21T02:29:02.235Z,0.00
2018-05-21T02:30:02.420Z,0.00
2018-05-21T02:31:02.625Z,0.00
2018-05-21T02:32:02.843Z,0.00
2018-05-21T02:33:03.041Z,0.00
2018-05-21T02:34:03.270Z,0.00
2018-05-21T02:35:03.457Z,0.00
2018-05-21T02:36:03.653Z,0.00
2018-05-21T02:37:03.864Z,0.00
2018-05-21T02:38:04.070Z,0.00
2018-05-21T02:39:04.277Z,0.00
2018-05-21T02:40:04.490Z,0.00
2018-05-21T02:41:04.687Z,0.00
2018-05-21T02:42:04.898Z,0.00
2018-05-21T02:43:05.088Z,0.00
2018-05-21T02:44:05.276Z,0.00
2018-05-21T02:45:05.566Z,0.00
2018-05-21T02:46:05.697Z,0.00
2018-05-21T02:47:05.897Z,0.00
2018-05-21T02:48:06.086Z,0.00
2018-05-21T02:49:06.285Z,0.00
2018-05-21T02:50:06.528Z,4.00
2018-05-21T02:51:06.590Z,4.00
2018-05-21T02:52:06.807Z,4.00
2018-05-21T02:53:07.066Z,0.00
2018-05-21T02:54:07.152Z,4.00
2018-05-21T02:55:07.333Z,4.00
2018-05-21T02:56:07.524Z,8.00
2018-05-21T02:57:07.740Z,4.00
2018-05-21T02:58:07.930Z,8.00
2018-05-21T02:59:08.141Z,8.00
2018-05-21T03:00:08.343Z,12.00
2018-05-21T03:01:08.542Z,12.00
2018-05-21T03:02:08.764Z,12.00
2018-05-21T03:03:08.938Z,12.00
2018-05-21T03:04:09.160Z,16.00
2018-05-21T03:05:09.357Z,16.00
2018-05-21T03:06:09.610Z,20.00
2018-05-21T03:07:09.696Z,20.00
2018-05-21T03:08:09.898Z,24.00
2018-05-21T03:09:10.088Z,28.00
2018-05-21T03:10:10.278Z,28.00
2018-05-21T03:11:10.494Z,32.00
2018-05-21T03:12:10.730Z,40.00
2018-05-21T03:13:10.926Z,40.00
2018-05-21T03:14:11.132Z,44.00
2018-05-21T03:15:11.336Z,52.00
2018-05-21T03:16:11.560Z,56.00
2018-05-21T03:17:11.759Z,68.00
2018-05-21T03:18:11.953Z,72.00
2018-05-21T03:19:12.127Z,80.00
2018-05-21T03:20:12.327Z,88.00
2018-05-21T03:21:12.518Z,96.00
2018-05-21T03:22:12.732Z,104.00
2018-05-21T03:23:12.956Z,116.00
2018-05-21T03:24:13.148Z,124.00
2018-05-21T03:25:13.362Z,132.00
2018-05-21T03:26:13.547Z,144.00
2018-05-21T03:27:13.749Z,156.00
2018-05-21T03:28:13.973Z,164.00
2018-05-21T03:29:14.049Z,176.00
2018-05-21T03:30:14.251Z,192.00
2018-05-21T03:31:14.431Z,208.00
2018-05-21T03:32:14.657Z,220.00
2018-05-21T03:33:14.849Z,240.00
2018-05-21T03:34:15.045Z,252.00
2018-05-21T03:35:15.284Z,268.00
2018-05-21T03:36:15.359Z,284.00
2018-05-21T03:37:15.819Z,304.00
2018-05-21T03:38:15.887Z,320.00
2018-05-21T03:39:16.166Z,340.00
2018-05-21T03:40:16.273Z,364.00
2018-05-21T03:41:16.340Z,380.00
2018-05-21T03:42:16.537Z,400.00
2018-05-21T03:43:16.518Z,424.00
2018-05-21T03:44:16.712Z,448.00
2018-05-21T03:45:16.923Z,468.00
2018-05-21T03:46:17.115Z,492.00
2018-05-21T03:47:17.329Z,512.00
2018-05-21T03:48:17.652Z,540.00
2018-05-21T03:49:17.746Z,560.00
2018-05-21T03:50:17.961Z,584.00
2018-05-21T03:51:18.168Z,612.00
2018-05-21T03:52:25.856Z,636.00
2018-05-21T03:53:25.939Z,660.00
2018-05-21T03:54:18.750Z,688.00
2018-05-21T03:55:18.967Z,712.00
2018-05-21T03:56:19.162Z,740.00
2018-05-21T03:57:27.057Z,768.00
2018-05-21T03:58:19.517Z,792.00
2018-05-21T03:59:19.712Z,820.00
2018-05-21T04:00:19.938Z,848.00
2018-05-21T04:01:20.013Z,876.00
2018-05-21T04:02:20.204Z,904.00
2018-05-21T04:03:20.420Z,932.00
2018-05-21T04:04:20.629Z,960.00
2018-05-21T04:05:20.827Z,988.00
2018-05-21T04:06:21.014Z,1020.00
2018-05-21T04:07:21.227Z,1048.00
2018-05-21T04:08:21.669Z,1080.00
2018-05-21T04:09:21.629Z,1108.00
2018-05-21T04:10:21.829Z,1140.00
2018-05-21T04:11:22.036Z,1172.00
2018-05-21T04:12:22.219Z,1200.00
2018-05-21T04:13:22.449Z,1232.00
2018-05-21T04:14:22.567Z,1260.00
2018-05-21T04:15:22.647Z,1292.00
2018-05-21T04:16:22.886Z,1324.00
2018-05-21T04:17:22.960Z,1356.00
2018-05-21T04:18:23.160Z,1388.00
2018-05-21T04:19:23.374Z,1416.00
2018-05-21T04:20:23.602Z,1448.00
2018-05-21T04:21:23.711Z,1476.00
2018-05-21T04:22:23.784Z,1508.00
2018-05-21T04:23:24.012Z,1544.00
2018-05-21T04:24:24.207Z,1576.00
2018-05-21T04:25:24.459Z,1604.00
2018-05-21T04:26:24.525Z,1640.00
2018-05-21T04:27:24.721Z,1672.00
2018-05-21T04:28:24.920Z,1704.00
2018-05-21T04:29:25.128Z,1736.00
2018-05-21T04:30:25.331Z,1772.00
2018-05-21T04:31:25.555Z,1808.00
2018-05-21T04:32:25.736Z,1840.00
2018-05-21T04:33:25.931Z,1876.00
2018-05-21T04:34:26.111Z,1912.00
2018-05-21T04:35:26.308Z,1948.00
2018-05-21T04:36:26.494Z,1984.00
2018-05-21T04:37:26.675Z,2020.00
2018-05-21T04:38:26.865Z,2056.00
2018-05-21T04:39:27.059Z,2088.00
2018-05-21T04:40:27.251Z,2128.00
2018-05-21T04:41:27.429Z,2160.00
2018-05-21T04:42:27.632Z,2200.00
2018-05-21T04:43:27.841Z,2240.00
2018-05-21T04:44:28.052Z,2276.00
2018-05-21T04:45:29.108Z,2312.00
2018-05-21T04:46:28.449Z,2348.00
2018-05-21T04:47:28.529Z,2388.00
2018-05-21T04:48:28.723Z,2428.00
2018-05-21T04:49:28.942Z,2468.00
2018-05-21T04:50:29.028Z,2508.00
2018-05-21T04:51:29.367Z,2544.00
2018-05-21T04:52:29.611Z,2588.00
2018-05-21T04:53:29.562Z,2628.00
2018-05-21T04:54:29.876Z,2664.00
2018-05-21T04:55:30.113Z,2704.00
2018-05-21T04:56:30.153Z,2740.00
2018-05-21T04:57:30.232Z,2784.00
2018-05-21T04:58:30.415Z,2824.00
2018-05-21T04:59:30.619Z,2860.00
2018-05-21T05:00:30.820Z,2900.00
2018-05-21T05:01:31.071Z,2940.00
2018-05-21T05:02:31.159Z,2988.00
2018-05-21T05:03:31.373Z,3032.00
2018-05-21T05:04:31.579Z,3076.00
2018-05-21T05:05:31.762Z,3124.00
2018-05-21T05:06:31.964Z,3168.00
2018-05-21T05:07:32.182Z,3212.00
2018-05-21T05:08:32.380Z,3252.00
2018-05-21T05:09:32.568Z,3292.00
2018-05-21T05:10:32.773Z,3328.00
2018-05-21T05:11:33.076Z,3368.00
2018-05-21T05:12:33.103Z,3404.00
2018-05-21T05:13:33.539Z,3440.00
2018-05-21T05:14:33.412Z,3480.00
2018-05-21T05:15:33.623Z,3520.00
2018-05-21T05:16:33.839Z,3564.00
2018-05-21T05:17:34.107Z,3608.00
2018-05-21T05:18:34.151Z,3656.00
2018-05-21T05:19:34.347Z,3704.00
2018-05-21T05:20:34.542Z,3748.00
2018-05-21T05:21:34.734Z,3796.00
2018-05-21T05:22:34.934Z,3844.00
2018-05-21T05:23:35.131Z,3896.00
2018-05-21T05:24:35.326Z,3944.00
2018-05-21T05:25:35.555Z,3988.00
2018-05-21T05:26:35.706Z,4032.00
2018-05-21T05:27:35.843Z,4076.00
2018-05-21T05:28:36.033Z,4116.00
2018-05-21T05:29:36.243Z,4160.00
2018-05-21T05:30:36.432Z,4208.00
2018-05-21T05:31:36.658Z,4248.00
2018-05-21T05:32:36.850Z,4292.00
2018-05-21T05:33:37.060Z,4332.00
2018-05-21T05:34:37.246Z,4388.00
2018-05-21T05:35:37.425Z,4432.00
2018-05-21T05:36:37.632Z,4472.00
2018-05-21T05:37:37.837Z,4516.00
2018-05-21T05:38:38.026Z,4564.00
2018-05-21T05:39:38.214Z,4600.00
2018-05-21T05:40:38.402Z,4648.00
2018-05-21T05:41:38.621Z,4696.00
2018-05-21T05:42:38.801Z,4736.00
2018-05-21T05:43:39.011Z,4800.00
2018-05-21T05:44:39.222Z,4864.00
2018-05-21T05:45:39.429Z,4944.00
2018-05-21T05:46:39.617Z,5032.00
2018-05-21T05:47:39.829Z,5160.00
2018-05-21T05:48:40.034Z,5348.00
2018-05-21T05:49:40.214Z,5556.00
2018-05-21T05:50:40.409Z,5760.00
2018-05-21T05:51:40.599Z,5932.00
2018-05-21T05:52:40.788Z,6104.00
2018-05-21T05:53:40.980Z,6280.00
2018-05-21T05:54:41.166Z,6452.00
2018-05-21T05:55:41.363Z,6628.00
2018-05-21T05:56:44.400Z,6828.00
2018-05-21T05:57:41.722Z,7180.00
2018-05-21T05:58:41.791Z,7788.00
2018-05-21T05:59:41.986Z,16896.00
2018-05-21T06:00:42.178Z,47232.00
2018-05-21T06:01:42.388Z,79008.00
2018-05-21T06:02:45.108Z,89664.00
2018-05-21T06:03:42.723Z,91456.00
2018-05-21T06:04:42.908Z,91520.00
2018-05-21T06:05:43.095Z,90848.00
2018-05-21T06:06:43.297Z,91744.00
2018-05-21T06:07:43.530Z,93024.00
2018-05-21T06:08:43.598Z,93024.00
2018-05-21T06:09:43.799Z,92992.00
2018-05-21T06:10:43.985Z,93632.00
2018-05-21T06:11:44.187Z,93440.00
2018-05-21T06:12:44.374Z,91840.00
2018-05-21T06:13:44.593Z,91008.00
2018-05-21T06:14:44.756Z,89568.00
2018-05-21T06:15:45.498Z,92064.00
2018-05-21T06:16:53.004Z,96064.00
2018-05-21T06:17:45.312Z,96160.00
2018-05-21T06:18:45.508Z,95712.00
2018-05-21T06:19:45.714Z,96224.00
2018-05-21T06:20:45.903Z,95456.00
2018-05-21T06:21:46.141Z,95360.00
2018-05-21T06:22:46.232Z,96448.00
2018-05-21T06:23:46.430Z,97152.00
2018-05-21T06:24:46.621Z,97888.00
2018-05-21T06:25:46.897Z,98272.00
2018-05-21T06:26:46.929Z,98048.00
2018-05-21T06:27:47.119Z,97664.00
2018-05-21T06:28:47.335Z,96160.00
2018-05-21T06:29:47.535Z,95968.00
2018-05-21T06:30:47.730Z,95584.00
2018-05-21T06:31:47.928Z,93152.00
2018-05-21T06:32:48.112Z,92928.00
2018-05-21T06:33:48.346Z,93504.00
2018-05-21T06:34:48.536Z,94688.00
2018-05-21T06:35:48.726Z,95392.00
2018-05-21T06:36:48.913Z,95744.00
2018-05-21T06:37:49.096Z,95840.00
2018-05-21T06:38:49.294Z,94944.00
2018-05-21T06:39:49.498Z,96032.00
2018-05-21T06:40:49.692Z,96608.00
2018-05-21T06:41:49.889Z,96832.00
2018-05-21T06:42:50.104Z,98080.00
2018-05-21T06:43:50.309Z,96352.00
2018-05-21T06:44:50.501Z,97280.00
2018-05-21T06:45:50.708Z,97664.00
2018-05-21T06:46:50.913Z,98560.00
2018-05-21T06:47:51.148Z,96992.00
2018-05-21T06:48:51.321Z,97056.00
2018-05-21T06:49:51.516Z,96992.00
2018-05-21T06:50:51.718Z,97408.00
2018-05-21T06:51:51.907Z,97184.00
2018-05-21T06:52:52.389Z,96384.00
2018-05-21T06:53:52.329Z,96480.00
2018-05-21T06:54:52.536Z,96992.00
2018-05-21T06:55:52.734Z,96448.00
2018-05-21T06:56:52.926Z,95744.00
2018-05-21T06:57:53.122Z,99296.00
2018-05-21T06:58:53.309Z,99520.00
2018-05-21T06:59:53.568Z,98240.00
2018-05-21T07:00:53.698Z,97568.00
2018-05-21T07:01:53.902Z,97472.00
2018-05-21T07:02:54.136Z,100960.00
2018-05-21T07:03:54.296Z,101728.00
2018-05-21T07:04:54.507Z,102208.00
2018-05-21T07:05:54.723Z,102784.00
2018-05-21T07:06:54.923Z,104736.00
2018-05-21T07:07:55.172Z,105792.00
2018-05-21T07:08:55.331Z,105664.00
2018-05-21T07:09:55.536Z,104992.00
2018-05-21T07:10:55.749Z,104352.00
2018-05-21T07:11:55.962Z,104992.00
2018-05-21T07:12:56.157Z,105856.00
2018-05-21T07:13:56.358Z,104480.00
2018-05-21T07:14:56.574Z,105120.00
2018-05-21T07:15:56.778Z,104544.00
2018-05-21T07:16:56.979Z,103616.00
2018-05-21T07:17:57.175Z,103712.00
2018-05-21T07:18:57.400Z,102752.00
2018-05-21T07:19:57.615Z,100640.00
2018-05-21T07:20:57.825Z,101856.00
2018-05-21T07:21:58.015Z,101920.00
2018-05-21T07:22:58.225Z,101696.00
2018-05-21T07:23:58.428Z,103200.00
2018-05-21T07:24:58.628Z,102048.00
2018-05-21T07:25:58.834Z,102720.00
2018-05-21T07:26:59.038Z,104800.00
2018-05-21T07:27:59.242Z,106656.00
2018-05-21T07:28:59.447Z,105888.00
2018-05-21T07:29:59.652Z,103616.00
2018-05-21T07:30:59.852Z,101472.00
2018-05-21T07:32:00.043Z,101952.00
2018-05-21T07:33:00.244Z,102720.00
2018-05-21T07:34:00.443Z,104608.00
2018-05-21T07:35:00.640Z,103776.00
2018-05-21T07:36:00.843Z,102528.00
2018-05-21T07:37:01.055Z,102560.00
2018-05-21T07:38:01.278Z,103680.00
2018-05-21T07:39:01.483Z,103424.00
2018-05-21T07:40:01.671Z,103712.00
2018-05-21T07:41:01.900Z,104160.00
2018-05-21T07:42:02.086Z,105280.00
2018-05-21T07:43:02.290Z,105664.00
2018-05-21T07:44:02.492Z,106560.00
2018-05-21T07:45:02.684Z,103904.00
2018-05-21T07:46:02.888Z,104608.00
2018-05-21T07:47:03.093Z,103712.00
2018-05-21T07:48:03.296Z,102080.00
2018-05-21T07:49:03.491Z,103072.00
2018-05-21T07:50:03.693Z,103648.00
2018-05-21T07:51:03.896Z,104704.00
2018-05-21T07:52:04.089Z,105632.00
2018-05-21T07:53:04.289Z,105408.00
2018-05-21T07:54:04.489Z,104224.00
2018-05-21T07:55:04.691Z,104288.00
2018-05-21T07:56:04.905Z,100608.00
2018-05-21T07:57:05.101Z,97536.00
2018-05-21T07:58:05.306Z,102176.00
2018-05-21T07:59:05.506Z,103520.00
2018-05-21T08:00:05.722Z,103712.00
2018-05-21T08:01:05.936Z,104832.00
2018-05-21T08:02:06.137Z,105280.00
2018-05-21T08:03:06.346Z,102272.00
2018-05-21T08:04:06.551Z,102848.00
2018-05-21T08:05:06.789Z,103936.00
2018-05-21T08:06:06.987Z,103808.00
2018-05-21T08:07:07.193Z,104064.00
2018-05-21T08:08:07.394Z,104160.00
2018-05-21T08:09:07.646Z,103904.00
2018-05-21T08:10:07.792Z,101728.00
2018-05-21T08:11:07.972Z,102112.00
2018-05-21T08:12:08.177Z,102304.00
2018-05-21T08:13:08.379Z,102976.00
2018-05-21T08:14:08.585Z,102848.00
2018-05-21T08:15:08.787Z,102720.00
2018-05-21T08:16:09.031Z,102304.00
2018-05-21T08:17:09.122Z,101216.00
2018-05-21T08:18:09.341Z,101152.00
2018-05-21T08:19:09.541Z,102176.00
2018-05-21T08:20:09.755Z,101856.00
2018-05-21T08:21:09.966Z,100768.00
2018-05-21T08:22:10.246Z,101952.00
2018-05-21T08:23:10.390Z,100832.00
2018-05-21T08:24:11.964Z,104000.00
2018-05-21T08:25:10.774Z,104032.00
2018-05-21T08:26:10.978Z,104288.00
2018-05-21T08:27:11.211Z,100384.00
2018-05-21T08:28:11.371Z,97984.00
2018-05-21T08:29:11.603Z,99680.00
2018-05-21T08:30:11.795Z,101056.00
2018-05-21T08:31:12.064Z,101856.00
2018-05-21T08:32:12.217Z,101760.00
2018-05-21T08:33:12.419Z,100512.00
2018-05-21T08:34:12.614Z,98336.00
2018-05-21T08:35:12.818Z,98272.00
2018-05-21T08:36:13.050Z,97184.00
2018-05-21T08:37:13.252Z,94848.00
2018-05-21T08:38:13.480Z,95584.00
2018-05-21T08:39:13.665Z,95360.00
2018-05-21T08:40:13.861Z,95328.00
2018-05-21T08:41:14.069Z,92256.00
2018-05-21T08:42:14.263Z,92928.00
2018-05-21T08:43:14.485Z,91168.00
2018-05-21T08:44:14.719Z,90304.00
2018-05-21T08:45:14.905Z,89632.00
2018-05-21T08:46:15.101Z,88032.00
2018-05-21T08:47:15.363Z,86912.00
2018-05-21T08:48:15.559Z,88960.00
2018-05-21T08:49:15.785Z,90720.00
2018-05-21T08:50:15.965Z,90592.00
2018-05-21T08:51:16.161Z,92320.00
2018-05-21T08:52:16.419Z,93664.00
2018-05-21T08:53:16.606Z,94208.00
2018-05-21T08:54:16.794Z,87648.00
2018-05-21T08:55:17.059Z,73120.00
2018-05-21T08:56:17.194Z,55488.00
2018-05-21T08:57:17.411Z,40928.00
2018-05-21T08:58:17.607Z,32672.00
2018-05-21T08:59:17.804Z,30304.00
2018-05-21T09:00:18.060Z,29856.00
2018-05-21T09:01:18.212Z,29664.00
2018-05-21T09:02:18.418Z,29632.00
2018-05-21T09:03:18.660Z,30080.00
2018-05-21T09:04:18.869Z,30496.00
2018-05-21T09:05:19.080Z,31008.00
2018-05-21T09:06:19.415Z,31232.00
2018-05-21T09:07:19.496Z,31168.00
2018-05-21T09:08:19.698Z,30816.00
2018-05-21T09:09:19.883Z,30592.00
2018-05-21T09:10:20.092Z,30688.00
2018-05-21T09:11:20.287Z,30528.00
2018-05-21T09:12:20.519Z,30336.00
2018-05-21T09:13:20.684Z,30016.00
2018-05-21T09:14:20.888Z,29952.00
2018-05-21T09:15:21.098Z,29888.00
2018-05-21T09:16:21.305Z,29760.00
2018-05-21T09:17:21.747Z,29664.00
2018-05-21T09:18:21.898Z,29120.00
2018-05-21T09:19:22.053Z,29184.00
2018-05-21T09:20:22.040Z,29312.00
2018-05-21T09:21:22.223Z,29024.00
2018-05-21T09:22:22.441Z,29056.00
2018-05-21T09:23:22.663Z,29600.00
2018-05-21T09:24:23.006Z,30112.00
2018-05-21T09:25:23.022Z,30816.00
2018-05-21T09:26:23.294Z,32192.00
2018-05-21T09:27:23.446Z,33920.00
2018-05-21T09:28:23.553Z,35520.00
2018-05-21T09:29:23.967Z,36800.00
2018-05-21T09:30:23.873Z,37408.00
2018-05-21T09:31:24.016Z,39872.00
2018-05-21T09:32:24.224Z,46624.00
2018-05-21T09:33:24.424Z,57824.00
2018-05-21T09:34:24.635Z,74432.00
2018-05-21T09:35:24.912Z,81728.00
2018-05-21T09:36:25.149Z,81600.00
2018-05-21T09:37:25.282Z,79776.00
2018-05-21T09:38:26.461Z,75776.00
2018-05-21T09:39:25.851Z,72800.00
2018-05-21T09:40:27.355Z,66752.00
2018-05-21T09:41:27.153Z,59808.00
2018-05-21T09:42:29.589Z,52032.00
2018-05-21T09:43:29.935Z,46432.00
2018-05-21T09:44:28.597Z,45632.00
2018-05-21T09:45:27.189Z,44896.00
2018-05-21T09:46:27.445Z,43840.00
2018-05-21T09:47:28.012Z,41824.00
2018-05-21T09:48:28.392Z,39136.00
2018-05-21T09:49:28.860Z,37888.00
2018-05-21T09:50:27.459Z,36384.00
2018-05-21T09:51:29.928Z,35776.00
2018-05-21T09:52:29.248Z,37664.00
2018-05-21T09:53:29.551Z,39232.00
2018-05-21T09:54:29.335Z,38560.00
2018-05-21T09:55:30.077Z,36832.00
2018-05-21T09:56:30.985Z,37088.00
2018-05-21T09:57:28.669Z,36800.00
2018-05-21T09:58:31.140Z,35648.00
2018-05-21T09:59:34.067Z,34848.00
2018-05-21T10:00:29.098Z,33664.00
2018-05-21T10:01:29.294Z,32928.00
2018-05-21T10:02:29.568Z,27488.00
2018-05-21T10:03:29.644Z,20640.00
2018-05-21T10:04:29.854Z,13512.00
2018-05-21T10:05:30.080Z,10896.00
2018-05-21T10:06:30.282Z,10180.00
2018-05-21T10:07:30.492Z,9912.00
2018-05-21T10:08:30.716Z,9780.00
2018-05-21T10:09:30.922Z,9716.00
2018-05-21T10:10:31.316Z,9656.00
2018-05-21T10:11:31.269Z,9576.00
2018-05-21T10:12:31.497Z,9548.00
2018-05-21T10:13:31.757Z,9468.00
2018-05-21T10:14:31.835Z,9460.00
2018-05-21T10:15:32.076Z,9404.00
2018-05-21T10:16:32.360Z,9364.00
2018-05-21T10:17:32.479Z,9300.00
2018-05-21T10:18:32.584Z,9144.00
2018-05-21T10:19:32.788Z,9000.00
2018-05-21T10:20:32.777Z,8812.00
2018-05-21T10:21:33.128Z,8664.00
2018-05-21T10:22:33.159Z,8416.00
2018-05-21T10:23:33.393Z,8172.00
2018-05-21T10:24:33.662Z,7948.00
2018-05-21T10:25:33.765Z,7720.00
2018-05-21T10:26:33.994Z,7396.00
2018-05-21T10:27:34.280Z,7108.00
2018-05-21T10:28:34.424Z,6860.00
2018-05-21T10:29:34.490Z,6552.00
2018-05-21T10:30:34.725Z,6240.00
2018-05-21T10:31:34.855Z,5940.00
2018-05-21T10:32:34.947Z,5688.00
2018-05-21T10:33:35.193Z,5520.00
2018-05-21T10:34:35.301Z,5452.00
2018-05-21T10:35:35.491Z,5432.00
2018-05-21T10:36:35.696Z,5432.00
2018-05-21T10:37:35.885Z,5444.00
2018-05-21T10:38:36.084Z,5416.00
2018-05-21T10:39:36.275Z,5384.00
2018-05-21T10:40:36.471Z,5356.00
2018-05-21T10:41:36.673Z,5308.00
2018-05-21T10:42:45.021Z,5284.00
2018-05-21T10:43:37.093Z,5260.00
2018-05-21T10:44:37.317Z,5236.00
2018-05-21T10:45:46.226Z,5192.00
2018-05-21T10:46:37.739Z,5196.00
2018-05-21T10:47:37.833Z,5136.00
2018-05-21T10:48:45.904Z,5124.00
2018-05-21T10:49:38.243Z,5136.00
2018-05-21T10:50:38.459Z,5172.00
2018-05-21T10:51:38.723Z,5140.00
2018-05-21T10:52:38.799Z,5136.00
2018-05-21T10:53:39.048Z,5104.00
2018-05-21T10:54:39.136Z,5048.00
2018-05-21T10:55:39.388Z,4984.00
2018-05-21T10:56:39.463Z,4964.00
2018-05-21T10:57:39.800Z,4928.00
2018-05-21T10:58:39.830Z,4912.00
2018-05-21T10:59:39.959Z,4876.00
2018-05-21T11:00:40.079Z,4836.00
2018-05-21T11:01:40.189Z,4808.00
2018-05-21T11:02:40.412Z,4764.00
2018-05-21T11:03:40.639Z,4756.00
2018-05-21T11:04:40.740Z,4744.00
2018-05-21T11:05:41.044Z,4728.00
2018-05-21T11:06:41.179Z,4700.00
2018-05-21T11:07:41.332Z,4688.00
2018-05-21T11:08:41.479Z,4692.00
2018-05-21T11:09:41.571Z,4716.00
2018-05-21T11:10:41.844Z,4724.00
2018-05-21T11:11:41.938Z,4684.00
2018-05-21T11:12:42.150Z,4648.00
2018-05-21T11:13:42.409Z,4632.00
2018-05-21T11:14:42.564Z,4624.00
2018-05-21T11:15:42.664Z,4620.00
2018-05-21T11:16:42.791Z,4548.00
2018-05-21T11:17:42.910Z,4548.00
2018-05-21T11:18:43.013Z,4516.00
2018-05-21T11:19:43.326Z,4504.00
2018-05-21T11:20:43.472Z,4516.00
2018-05-21T11:21:43.581Z,4520.00
2018-05-21T11:22:43.784Z,4528.00
2018-05-21T11:23:43.927Z,4548.00
2018-05-21T11:24:44.127Z,4512.00
2018-05-21T11:25:44.185Z,4500.00
2018-05-21T11:26:44.331Z,4452.00
2018-05-21T11:27:44.464Z,4420.00
2018-05-21T11:28:44.586Z,4380.00
2018-05-21T11:29:44.690Z,4316.00
2018-05-21T11:30:44.914Z,4280.00
2018-05-21T11:31:45.110Z,4224.00
2018-05-21T11:32:45.307Z,4204.00
2018-05-21T11:33:45.661Z,4208.00
2018-05-21T11:34:45.765Z,4164.00
2018-05-21T11:35:45.907Z,4140.00
2018-05-21T11:36:46.181Z,4096.00
2018-05-21T11:37:46.203Z,4056.00
2018-05-21T11:38:46.312Z,4044.00
2018-05-21T11:39:46.412Z,4048.00
2018-05-21T11:40:46.703Z,4064.00
2018-05-21T11:41:46.951Z,4068.00
2018-05-21T11:42:47.060Z,4072.00
2018-05-21T11:43:47.155Z,4052.00
2018-05-21T11:44:47.251Z,4048.00
2018-05-21T11:45:47.367Z,4064.00
2018-05-21T11:46:47.555Z,4068.00
2018-05-21T11:47:47.695Z,4040.00
2018-05-21T11:48:47.805Z,4040.00
2018-05-21T11:49:47.995Z,4000.00
2018-05-21T11:50:48.298Z,3988.00
2018-05-21T11:51:48.376Z,3952.00
2018-05-21T11:52:48.671Z,3936.00
2018-05-21T11:53:48.790Z,3912.00
2018-05-21T11:54:48.897Z,3892.00
2018-05-21T11:55:49.119Z,3868.00
2018-05-21T11:56:49.399Z,3848.00
2018-05-21T11:57:49.507Z,3824.00
2018-05-21T11:58:49.751Z,3808.00
2018-05-21T11:59:49.862Z,3772.00
2018-05-21T12:00:50.155Z,3752.00
2018-05-21T12:01:50.238Z,3732.00
2018-05-21T12:02:50.460Z,3728.00
2018-05-21T12:03:50.693Z,3716.00
2018-05-21T12:04:50.952Z,3708.00
2018-05-21T12:05:51.055Z,3696.00
2018-05-21T12:06:51.255Z,3684.00
2018-05-21T12:07:51.474Z,3676.00
2018-05-21T12:08:51.776Z,3652.00
2018-05-21T12:09:51.872Z,3636.00
2018-05-21T12:10:52.287Z,3644.00
2018-05-21T12:11:52.245Z,3620.00
2018-05-21T12:12:52.458Z,3548.00
2018-05-21T12:13:52.712Z,3472.00
2018-05-21T12:14:52.844Z,3424.00
2018-05-21T12:15:53.100Z,3388.00
2018-05-21T12:16:53.153Z,3360.00